sensor_id;sensor_type;location;lat;lon;timestamp;pressure;altitude;pressure_sealevel;temperature;humidity
62980;BME280;49075;53.988;27.678;2024-01-30T02:14:21;1004;;;-1.7;76
62980;BME280;49075;53.988;27.678;2024-01-30T02:18:53;1003.5;;;-2.3;78
62980;BME280;49075;53.988;27.678;2024-01-30T02:43:53;1003.5;;;-2.4;78.4
62980;BME280;49075;53.988;27.678;2024-01-30T03:14:35;1003.4;;;-2.6;78.8
62980;BME280;49075;53.988;27.678;2024-01-30T03:33:53;1003.4;;;-2.3;77.3
62980;BME280;49075;53.988;27.678;2024-01-30T03:39:03;1003.3;;;-2.6;78.4
62980;BME280;49075;53.988;27.678;2024-01-30T03:54:03;1003.2;;;-2.7;78.6
62980;BME280;49075;53.988;27.678;2024-01-30T03:59:21;1003.1;;;-2.9;79.1
62980;BME280;49075;53.988;27.678;2024-01-30T04:04:01;1003.1;;;-2.8;78.8
62980;BME280;49075;53.988;27.678;2024-01-30T04:08:53;1003;;;-2.9;79.1
62980;BME280;49075;53.988;27.678;2024-01-30T04:14:01;1003;;;-3;79.3
62980;BME280;49075;53.988;27.678;2024-01-30T04:19:25;1003;;;-3;79.6
62980;BME280;49075;53.988;27.678;2024-01-30T04:24:11;1003;;;-2.9;78.7
62980;BME280;49075;53.988;27.678;2024-01-30T04:29:05;1003;;;-3.1;79.8
62980;BME280;49075;53.988;27.678;2024-01-30T04:34:13;1002.9;;;-3.1;80
62980;BME280;49075;53.988;27.678;2024-01-30T04:39:23;1002.8;;;-3.2;79.9
62980;BME280;49075;53.988;27.678;2024-01-30T04:43:53;1002.8;;;-3.1;80
62980;BME280;49075;53.988;27.678;2024-01-30T04:49:25;1002.8;;;-3.1;79.3
62980;BME280;49075;53.988;27.678;2024-01-30T04:53:53;1002.8;;;-3.1;79.6
62980;BME280;49075;53.988;27.678;2024-01-30T04:58:53;1002.8;;;-3.2;79.7
62980;BME280;49075;53.988;27.678;2024-01-30T05:03:53;1002.8;;;-3.2;80
62980;BME280;49075;53.988;27.678;2024-01-30T05:09:01;1002.8;;;-3.2;79.7
62980;BME280;49075;53.988;27.678;2024-01-30T05:13:53;1002.8;;;-3.2;79.8
62980;BME280;49075;53.988;27.678;2024-01-30T05:19:43;1002.7;;;-3.2;79.7
62980;BME280;49075;53.988;27.678;2024-01-30T05:24:19;1002.7;;;-3.3;80.2
62980;BME280;49075;53.988;27.678;2024-01-30T05:29:29;1002.7;;;-3;79.1
62980;BME280;49075;53.988;27.678;2024-01-30T05:34:11;1002.7;;;-3.1;79.1
62980;BME280;49075;53.988;27.678;2024-01-30T05:39:15;1002.7;;;-3.1;79.2
62980;BME280;49075;53.988;27.678;2024-01-30T05:44:01;1002.7;;;-3.2;79.5
62980;BME280;49075;53.988;27.678;2024-01-30T05:49:23;1002.7;;;-3.1;79.1
62980;BME280;49075;53.988;27.678;2024-01-30T05:54:19;1002.7;;;-3.2;79.3
62980;BME280;49075;53.988;27.678;2024-01-30T05:59:01;1002.7;;;-3;78.8
62980;BME280;49075;53.988;27.678;2024-01-30T06:04:01;1002.7;;;-3.1;79
62980;BME280;49075;53.988;27.678;2024-01-30T06:09:11;1002.6;;;-3.1;78.9
62980;BME280;49075;53.988;27.678;2024-01-30T06:14:05;1002.5;;;-3.3;79.5
62980;BME280;49075;53.988;27.678;2024-01-30T06:19:29;1002.5;;;-3.3;79.5
62980;BME280;49075;53.988;27.678;2024-01-30T06:23:53;1002.5;;;-3.4;79.7
62980;BME280;49075;53.988;27.678;2024-01-30T06:29:23;1002.5;;;-3.5;80
62980;BME280;49075;53.988;27.678;2024-01-30T06:34:01;1002.4;;;-3.4;79.9
62980;BME280;49075;53.988;27.678;2024-01-30T06:38:53;1002.4;;;-3.5;80.1
62980;BME280;49075;53.988;27.678;2024-01-30T06:44:11;1002.4;;;-3.5;80.2
62980;BME280;49075;53.988;27.678;2024-01-30T06:49:23;1002.3;;;-3.4;79.9
62980;BME280;49075;53.988;27.678;2024-01-30T06:54:19;1002.2;;;-3.4;79.8
62980;BME280;49075;53.988;27.678;2024-01-30T07:03:53;1002.2;;;-3.4;79.7
62980;BME280;49075;53.988;27.678;2024-01-30T07:08:53;1002.2;;;-1.8;75.8
62980;BME280;49075;53.988;27.678;2024-01-30T07:14:01;1002.1;;;-1.4;74.9
62980;BME280;49075;53.988;27.678;2024-01-30T07:19:13;1002;;;-1.1;73.7
62980;BME280;49075;53.988;27.678;2024-01-30T07:33:53;1001.9;;;-1.3;73.2
62980;BME280;49075;53.988;27.678;2024-01-30T07:39:13;1001.9;;;1.4;67
62980;BME280;49075;53.988;27.678;2024-01-30T09:29:13;1001.4;;;7.2;49.9
62980;BME280;49075;53.988;27.678;2024-01-30T09:34:15;1001.4;;;7.9;47.8
62980;BME280;49075;53.988;27.678;2024-01-30T09:38:53;1001.4;;;6.7;48.6
62980;BME280;49075;53.988;27.678;2024-01-30T09:43:54;1001.4;;;6.9;49
62980;BME280;49075;53.988;27.678;2024-01-30T09:49:15;1001.3;;;9.1;44.8
62980;BME280;49075;53.988;27.678;2024-01-30T09:54:12;1001.2;;;10.1;44.2
62980;BME280;49075;53.988;27.678;2024-01-30T09:59:24;1001.2;;;10.9;41.8
62980;BME280;49075;53.988;27.678;2024-01-30T10:03:54;1001.2;;;11;42
62980;BME280;49075;53.988;27.678;2024-01-30T10:08:53;1001.1;;;11.4;39.9
62980;BME280;49075;53.988;27.678;2024-01-30T10:14:19;1001;;;11.6;40.3
62980;BME280;49075;53.988;27.678;2024-01-30T10:19:02;1001;;;11.4;38.5
62980;BME280;49075;53.988;27.678;2024-01-30T10:23:53;1000.9;;;11.6;39.5
62980;BME280;49075;53.988;27.678;2024-01-30T10:29:16;1000.9;;;10.6;38.9
62980;BME280;49075;53.988;27.678;2024-01-30T10:34:19;1000.8;;;10.6;39.7
62980;BME280;49075;53.988;27.678;2024-01-30T10:39:09;1000.8;;;11.4;38.5
62980;BME280;49075;53.988;27.678;2024-01-30T10:43:56;1000.7;;;11.9;38.1
62980;BME280;49075;53.988;27.678;2024-01-30T10:49:29;1000.7;;;11.6;37.1
62980;BME280;49075;53.988;27.678;2024-01-30T10:54:11;1000.6;;;12.6;36.6
62980;BME280;49075;53.988;27.678;2024-01-30T10:59:01;1000.6;;;13.2;35.5
62980;BME280;49075;53.988;27.678;2024-01-30T11:03:54;1000.5;;;13.8;35.4
62980;BME280;49075;53.988;27.678;2024-01-30T11:09:01;1000.5;;;14.5;33.9
62980;BME280;49075;53.988;27.678;2024-01-30T11:14:05;1000.4;;;15.5;33.8
62980;BME280;49075;53.988;27.678;2024-01-30T11:19:07;1000.4;;;15.5;32.3
62980;BME280;49075;53.988;27.678;2024-01-30T11:43:54;1000.3;;;14.9;32.9
62980;BME280;49075;53.988;27.678;2024-01-30T11:49:11;1000.3;;;13.6;33.9
62980;BME280;49075;53.988;27.678;2024-01-30T11:54:06;1000.2;;;13.7;33
62980;BME280;49075;53.988;27.678;2024-01-30T11:59:12;1000.3;;;13.7;33.5
62980;BME280;49075;53.988;27.678;2024-01-30T12:03:54;1000.3;;;12.9;33.4
62980;BME280;49075;53.988;27.678;2024-01-30T12:09:02;1000.2;;;13.1;34
62980;BME280;49075;53.988;27.678;2024-01-30T12:14:24;1000.1;;;11.8;34.4
62980;BME280;49075;53.988;27.678;2024-01-30T12:19:21;1000;;;11.2;35.4
62980;BME280;49075;53.988;27.678;2024-01-30T12:24:13;1000;;;11;35.7
62980;BME280;49075;53.988;27.678;2024-01-30T12:29:16;1000;;;10.1;37
62980;BME280;49075;53.988;27.678;2024-01-30T13:19:20;999.7;;;1.8;54.3
62980;BME280;49075;53.988;27.678;2024-01-30T13:24:12;999.7;;;1.6;55.4
62980;BME280;49075;53.988;27.678;2024-01-30T13:34:20;999.7;;;1.1;57.4
62980;BME280;49075;53.988;27.678;2024-01-30T13:39:02;999.7;;;1;57.1
62980;BME280;49075;53.988;27.678;2024-01-30T13:43:54;999.7;;;1;57.9
62980;BME280;49075;53.988;27.678;2024-01-30T13:48:54;999.7;;;1;57.2
62980;BME280;49075;53.988;27.678;2024-01-30T13:54:14;999.7;;;1.4;56.1
62980;BME280;49075;53.988;27.678;2024-01-30T13:59:30;999.7;;;1.1;57.7
